Time;durP1;ratioP1;P1;durP2;ratioP2;P2;SDS_P1;SDS_P2;PMS_P1;PMS_P2;Temp;Humidity;BMP_temperature;BMP_pressure;BME280_temperature;BME280_humidity;BME280_pressure;Samples;Min_cycle;Max_cycle;Signal;HPM_P1;HPM_P2
2022/01/10 00:00:22;;;;;;;11.75;3.30;;;4.70;99.90;;;4.47;93.80;100498.25;5219432;28;20049;-78
2022/01/10 00:02:56;;;;;;;16.05;4.28;;;4.60;99.90;;;4.43;93.78;100501.44;5225320;28;20053;-80
2022/01/10 00:05:28;;;;;;;11.90;3.67;;;4.60;99.90;;;4.43;94.17;100501.44;5225997;28;20060;-78
2022/01/10 00:08:02;;;;;;;7.43;3.63;;;4.60;99.90;;;4.43;93.99;100506.63;5225055;28;20048;-78
2022/01/10 00:10:36;;;;;;;10.20;3.53;;;4.60;99.90;;;4.45;94.38;100507.59;5212534;28;20073;-78
2022/01/10 00:13:08;;;;;;;13.13;4.07;;;4.60;99.90;;;4.46;94.59;100511.06;5211017;28;20338;-78
2022/01/10 00:15:40;;;;;;;11.55;3.25;;;4.60;99.90;;;4.48;94.06;100512.03;5215151;28;20404;-78
2022/01/10 00:18:13;;;;;;;9.98;3.50;;;4.60;99.90;;;4.50;94.19;100515.56;5219437;28;20049;-80
2022/01/10 00:20:45;;;;;;;11.15;3.47;;;4.60;99.90;;;4.50;94.00;100523.31;5211250;28;20050;-78
2022/01/10 00:23:17;;;;;;;10.75;3.35;;;4.70;99.90;;;4.48;93.74;100518.09;5204858;28;20057;-80
2022/01/10 00:25:50;;;;;;;7.93;3.35;;;4.70;99.90;;;4.48;93.68;100514.63;5217380;28;20045;-77
2022/01/10 00:28:22;;;;;;;11.57;3.60;;;4.70;99.90;;;4.47;93.47;100523.16;5207820;28;20503;-78
2022/01/10 00:30:54;;;;;;;11.88;3.58;;;4.60;99.90;;;4.43;93.01;100516.94;5213892;28;20052;-78
2022/01/10 00:33:26;;;;;;;10.95;2.80;;;4.60;99.90;;;4.41;92.67;100523.72;5213253;28;20048;-77
2022/01/10 00:35:58;;;;;;;10.60;3.28;;;4.60;99.90;;;4.34;92.48;100522.50;5214373;28;20056;-78
2022/01/10 00:38:30;;;;;;;9.02;3.17;;;4.60;99.90;;;4.28;92.16;100524.72;5214797;28;20504;-79
2022/01/10 00:41:04;;;;;;;8.18;3.00;;;4.50;99.90;;;4.25;92.46;100534.00;5213272;28;20049;-79
2022/01/10 00:43:40;;;;;;;8.35;3.28;;;4.40;99.90;;;4.19;92.26;100533.66;5213279;28;20522;-79
2022/01/10 00:46:12;;;;;;;8.80;3.97;;;4.40;99.90;;;4.17;92.55;100533.56;5215832;28;20072;-79
2022/01/10 00:48:45;;;;;;;7.78;3.10;;;4.40;99.90;;;4.11;91.84;100540.06;5214399;28;20060;-78
2022/01/10 00:51:17;;;;;;;12.93;3.50;;;4.30;99.90;;;4.05;92.18;100548.38;5211138;28;20060;-78
2022/01/10 00:53:50;;;;;;;13.80;3.90;;;4.20;99.90;;;4.01;91.90;100551.56;5216841;28;20516;-79
2022/01/10 00:56:24;;;;;;;9.52;3.42;;;4.20;99.90;;;3.94;91.62;100549.44;5214256;28;20079;-78
2022/01/10 00:58:55;;;;;;;9.32;3.45;;;4.20;99.90;;;3.87;91.44;100548.22;5219007;28;20057;-78
2022/01/10 01:01:27;;;;;;;8.77;3.45;;;4.10;99.90;;;3.80;91.41;100553.81;5209789;28;20046;-78
2022/01/10 01:03:59;;;;;;;7.93;2.88;;;4.00;99.90;;;3.71;91.44;100561.88;5208387;28;20052;-79
2022/01/10 01:06:31;;;;;;;9.95;3.00;;;4.00;99.90;;;3.65;91.54;100566.72;5214751;28;20053;-78
2022/01/10 01:09:08;;;;;;;10.45;3.20;;;3.90;99.90;;;3.63;91.54;100569.97;5215774;28;20051;-79
2022/01/10 01:14:39;;;;;;;7.38;2.85;;;3.80;99.90;;;3.51;91.61;100576.19;5201767;28;20408;-78
2022/01/10 01:17:15;;;;;;;8.30;3.40;;;3.70;99.90;;;3.44;91.56;100579.19;5214280;28;20046;-78
2022/01/10 01:20:07;;;;;;;8.48;2.97;;;3.70;99.90;;;3.36;91.52;100577.84;5220530;28;20491;-78
2022/01/10 01:25:29;;;;;;;8.13;3.10;;;3.60;99.90;;;3.23;91.82;100599.41;5225101;28;20099;-80
2022/01/10 01:28:03;;;;;;;8.98;3.85;;;3.50;99.90;;;3.19;92.08;100600.00;5227336;28;20053;-78
2022/01/10 01:30:35;;;;;;;6.82;3.20;;;3.40;99.90;;;3.18;92.45;100597.34;5225517;28;20045;-78
2022/01/10 01:33:07;;;;;;;6.25;2.75;;;3.40;99.90;;;3.15;92.31;100616.09;5225351;28;20415;-78
2022/01/10 01:35:39;;;;;;;11.52;3.47;;;3.40;99.90;;;3.11;92.63;100621.84;5225233;28;20053;-79
2022/01/10 01:38:11;;;;;;;8.45;3.15;;;3.40;99.90;;;3.10;92.71;100625.22;5225662;28;20041;-78
2022/01/10 01:40:49;;;;;;;14.30;3.13;;;3.30;99.90;;;3.06;92.55;100627.50;5225535;28;20049;-79
2022/01/10 01:43:22;;;;;;;10.63;3.35;;;3.30;99.90;;;3.00;92.29;100628.03;5225279;28;20111;-79
2022/01/10 01:45:54;;;;;;;9.45;3.00;;;3.20;99.90;;;2.93;92.26;100631.91;5225326;28;20415;-79
2022/01/10 01:48:26;;;;;;;9.85;2.90;;;3.20;99.90;;;2.90;92.27;100642.00;5225480;28;20060;-79
2022/01/10 01:50:58;;;;;;;6.53;2.67;;;3.20;99.90;;;2.86;92.21;100650.31;5225426;28;20388;-78
2022/01/10 01:53:30;;;;;;;7.18;3.38;;;3.10;99.90;;;2.81;92.48;100650.84;5225243;28;20053;-78
2022/01/10 01:56:02;;;;;;;8.35;3.25;;;3.10;99.90;;;2.77;92.35;100652.31;5224727;28;20491;-78
2022/01/10 01:58:37;;;;;;;7.90;2.70;;;3.10;99.90;;;2.73;92.53;100658.06;5225336;28;20055;-78
2022/01/10 02:01:10;;;;;;;5.13;2.67;;;3.00;99.90;;;2.70;92.73;100663.03;5225079;28;20053;-79
2022/01/10 02:03:42;;;;;;;7.65;3.17;;;3.00;99.90;;;2.70;93.21;100668.16;5225224;28;20049;-81
2022/01/10 02:06:14;;;;;;;7.80;2.95;;;3.00;99.90;;;2.74;93.58;100670.16;5227300;28;20049;-79
2022/01/10 02:08:47;;;;;;;8.05;3.03;;;3.00;99.90;;;2.79;94.08;100673.91;5228944;28;20518;-79
2022/01/10 02:11:18;;;;;;;5.90;2.80;;;3.00;99.90;;;2.83;94.32;100675.00;5228979;28;20057;-79
2022/01/10 02:13:52;;;;;;;12.90;3.13;;;3.00;99.90;;;2.84;94.20;100676.78;5228467;28;20522;-79
2022/01/10 02:16:33;;;;;;;6.40;3.05;;;3.00;99.90;;;2.86;94.32;100682.91;5228857;28;20049;-78
2022/01/10 02:19:05;;;;;;;7.35;2.72;;;3.10;99.90;;;2.87;94.58;100683.03;5228584;28;20469;-79
2022/01/10 02:21:40;;;;;;;6.57;2.53;;;3.10;99.90;;;2.88;94.71;100694.22;5228920;28;20053;-78
2022/01/10 02:24:12;;;;;;;8.68;2.80;;;3.10;99.90;;;2.88;94.97;100691.63;5228195;28;20060;-78
2022/01/10 02:26:48;;;;;;;8.20;3.15;;;3.10;99.90;;;2.88;94.65;100695.09;5228444;28;20495;-78
2022/01/10 02:29:20;;;;;;;11.95;3.90;;;3.10;99.90;;;2.87;94.69;100695.91;5228157;28;20478;-78
2022/01/10 02:31:52;;;;;;;6.88;3.20;;;3.10;99.90;;;2.89;94.95;100696.88;5228650;28;20060;-78
2022/01/10 02:34:25;;;;;;;8.63;3.15;;;3.10;99.90;;;2.90;94.71;100708.94;5228037;28;20049;-78
2022/01/10 02:37:00;;;;;;;11.05;3.55;;;3.20;99.90;;;2.85;94.18;100707.75;5228309;28;20068;-80
2022/01/10 02:39:32;;;;;;;7.47;2.80;;;3.10;99.90;;;2.81;94.33;100703.22;5228129;28;20143;-79
2022/01/10 02:42:05;;;;;;;9.35;2.75;;;3.10;99.90;;;2.75;93.75;100707.09;5228063;28;20049;-79
2022/01/10 02:44:37;;;;;;;9.38;2.92;;;3.00;99.90;;;2.67;93.80;100706.56;5226789;28;20053;-78
2022/01/10 02:47:09;;;;;;;5.97;2.45;;;3.00;99.90;;;2.61;93.79;100724.22;5228238;28;20049;-78
2022/01/10 02:49:41;;;;;;;6.07;2.65;;;2.90;99.90;;;2.56;93.49;100725.59;5227983;28;20535;-78
2022/01/10 02:52:14;;;;;;;8.55;3.38;;;2.80;99.90;;;2.50;93.44;100735.47;5227816;28;20247;-78
2022/01/10 02:54:46;;;;;;;5.03;2.83;;;2.80;99.90;;;2.45;93.36;100733.47;5227786;28;20419;-78
2022/01/10 02:57:19;;;;;;;7.15;2.65;;;2.70;99.90;;;2.41;93.70;100739.22;5228085;28;20498;-77
2022/01/10 02:59:51;;;;;;;5.97;3.10;;;2.70;99.90;;;2.37;93.17;100744.97;5227656;28;20065;-77
2022/01/10 03:02:27;;;;;;;7.70;3.22;;;2.70;99.90;;;2.33;93.54;100750.66;5227711;28;20049;-79
2022/01/10 03:04:59;;;;;;;9.50;2.97;;;2.70;99.90;;;2.32;93.16;100756.63;5227651;28;20415;-77
2022/01/10 03:07:33;;;;;;;6.72;2.72;;;2.60;99.90;;;2.30;93.76;100763.34;5227935;28;20070;-79
2022/01/10 03:10:07;;;;;;;6.40;2.55;;;2.60;99.90;;;2.27;93.43;100770.84;5228906;28;20057;-78
2022/01/10 03:12:39;;;;;;;6.70;2.97;;;2.60;99.90;;;2.24;93.40;100783.50;5228498;28;20055;-79
2022/01/10 03:15:12;;;;;;;6.13;3.38;;;2.50;99.90;;;2.20;93.13;100776.34;5227203;28;20134;-78
2022/01/10 03:17:44;;;;;;;6.22;3.13;;;2.50;99.90;;;2.17;93.31;100777.06;5226882;28;20059;-79
2022/01/10 03:20:16;;;;;;;6.40;2.50;;;2.50;99.90;;;2.15;93.75;100785.44;5227585;28;20469;-79
2022/01/10 03:22:50;;;;;;;9.13;3.75;;;2.50;99.90;;;2.14;93.93;100781.09;5227324;28;20052;-78
2022/01/10 03:25:21;;;;;;;11.45;3.83;;;2.40;99.90;;;2.14;93.71;100783.66;5226964;28;20056;-79
2022/01/10 03:27:53;;;;;;;14.25;3.90;;;2.50;99.90;;;2.14;93.48;100786.22;5227417;28;20044;-78
2022/01/10 03:30:26;;;;;;;7.55;3.15;;;2.50;99.90;;;2.10;93.54;100791.97;5227218;28;20060;-78
2022/01/10 03:33:01;;;;;;;12.80;3.35;;;2.40;99.90;;;2.09;93.84;100797.91;5227238;28;20529;-78
2022/01/10 03:35:33;;;;;;;8.40;3.00;;;2.40;99.90;;;2.10;93.77;100816.00;5226966;28;20466;-78
2022/01/10 03:38:06;;;;;;;12.90;3.10;;;2.40;99.90;;;2.10;94.03;100815.13;5226970;28;20053;-79
2022/01/10 03:40:38;;;;;;;5.90;2.60;;;2.40;99.90;;;2.07;93.95;100815.78;5227072;28;20056;-78
2022/01/10 03:43:10;;;;;;;6.07;2.88;;;2.40;99.90;;;2.01;93.52;100811.91;5226997;28;20060;-78
2022/01/10 03:45:43;;;;;;;7.50;3.10;;;2.30;99.90;;;1.98;93.14;100821.97;5226658;28;20060;-78
2022/01/10 03:48:15;;;;;;;10.10;2.80;;;2.30;99.90;;;1.93;93.37;100820.75;5226822;28;20438;-78
2022/01/10 03:50:47;;;;;;;6.90;3.15;;;2.20;99.90;;;1.90;93.51;100816.31;5227135;28;20057;-78
2022/01/10 03:53:21;;;;;;;7.18;2.70;;;2.20;99.90;;;1.90;93.46;100824.91;5227093;28;20056;-78
2022/01/10 03:55:52;;;;;;;6.18;3.20;;;2.20;99.90;;;1.85;93.78;100831.41;5226328;28;20434;-78
2022/01/10 03:58:24;;;;;;;7.78;2.88;;;2.20;99.90;;;1.82;93.69;100838.00;5226763;28;20048;-78
2022/01/10 04:00:56;;;;;;;8.25;3.25;;;2.10;99.90;;;1.77;93.76;100839.38;5226556;28;20051;-79
2022/01/10 04:03:28;;;;;;;7.53;2.75;;;2.10;99.90;;;1.74;94.04;100832.31;5226519;28;20048;-78
2022/01/10 04:06:01;;;;;;;7.15;3.20;;;2.10;99.90;;;1.75;94.35;100836.69;5226379;28;20045;-78
2022/01/10 04:08:35;;;;;;;10.05;3.28;;;2.10;99.90;;;1.76;93.79;100838.50;5226529;28;20080;-78
2022/01/10 04:11:07;;;;;;;10.02;2.90;;;2.10;99.90;;;1.75;94.35;100831.53;5226439;28;20048;-79
2022/01/10 04:13:40;;;;;;;8.13;3.28;;;2.10;99.90;;;1.72;93.94;100846.75;5226544;28;20049;-79
2022/01/10 04:16:11;;;;;;;9.30;3.10;;;2.10;99.90;;;1.70;93.34;100848.34;5226113;28;20637;-78
2022/01/10 04:18:44;;;;;;;6.88;3.33;;;2.10;99.90;;;1.69;93.97;100856.81;5226526;28;20045;-78
2022/01/10 04:21:16;;;;;;;7.88;3.17;;;2.00;99.90;;;1.66;93.53;100866.88;5225498;28;20056;-77
2022/01/10 04:23:49;;;;;;;9.00;3.05;;;2.00;99.90;;;1.62;93.39;100870.00;5225848;28;20060;-78
2022/01/10 04:26:22;;;;;;;7.78;2.70;;;2.00;99.90;;;1.58;93.08;100873.16;5226104;28;20048;-78
2022/01/10 04:28:53;;;;;;;7.47;2.65;;;1.90;99.90;;;1.54;92.96;100887.44;5225347;28;20154;-78
2022/01/10 04:31:25;;;;;;;7.28;3.03;;;1.90;99.90;;;1.54;93.06;100895.16;5226050;28;20522;-79
2022/01/10 04:33:57;;;;;;;10.50;3.38;;;1.90;99.90;;;1.50;93.38;100898.31;5225864;28;20423;-80
2022/01/10 04:36:29;;;;;;;10.52;3.63;;;1.80;99.90;;;1.48;93.22;100898.97;5225866;28;20060;-78
2022/01/10 04:39:03;;;;;;;13.63;4.63;;;1.80;99.90;;;1.46;93.67;100905.66;5226221;28;20072;-77
2022/01/10 04:41:37;;;;;;;9.13;3.65;;;1.80;99.90;;;1.43;93.35;100908.88;5226049;28;20582;-77
2022/01/10 04:44:09;;;;;;;8.43;3.05;;;1.80;99.90;;;1.43;93.31;100913.13;5225824;28;20076;-78
2022/01/10 04:46:41;;;;;;;10.13;3.92;;;1.80;99.90;;;1.41;93.76;100930.13;5225723;28;20045;-78
2022/01/10 04:49:21;;;;;;;9.82;4.35;;;1.80;99.90;;;1.41;94.03;100932.69;5226478;28;20431;-78
2022/01/10 04:51:54;;;;;;;14.77;5.35;;;1.70;99.90;;;1.38;93.50;100950.47;5227148;28;20147;-78
2022/01/10 04:54:27;;;;;;;19.40;5.38;;;1.70;99.90;;;1.36;93.51;100948.66;5226574;28;20103;-78
2022/01/10 04:56:59;;;;;;;21.90;6.55;;;1.70;99.90;;;1.34;93.60;100951.91;5225878;28;20060;-79
2022/01/10 04:59:31;;;;;;;20.35;6.25;;;1.70;99.90;;;1.31;93.17;100964.53;5225941;28;20432;-79
2022/01/10 05:02:04;;;;;;;19.33;6.13;;;1.70;99.90;;;1.29;93.12;100961.81;5226154;28;20052;-78
2022/01/10 05:04:36;;;;;;;12.40;5.78;;;1.70;99.90;;;1.29;93.19;100966.06;5226599;28;20060;-78
2022/01/10 05:07:08;;;;;;;17.05;4.45;;;1.60;99.90;;;1.29;93.49;100976.34;5226605;28;20053;-78
2022/01/10 05:09:41;;;;;;;11.57;4.03;;;1.60;99.90;;;1.26;93.10;100977.00;5226506;28;20056;-79
2022/01/10 05:12:13;;;;;;;14.93;5.28;;;1.60;99.90;;;1.24;93.20;100981.16;5227151;28;20060;-78
2022/01/10 05:14:45;;;;;;;19.05;6.05;;;1.60;99.90;;;1.22;92.93;100990.41;5225863;28;20049;-78
2022/01/10 05:17:19;;;;;;;17.77;5.85;;;1.60;99.90;;;1.19;93.21;100997.88;5227099;28;20410;-77
2022/01/10 05:19:51;;;;;;;13.13;4.47;;;1.50;99.90;;;1.17;93.32;100999.41;5226540;28;20045;-78
2022/01/10 05:22:23;;;;;;;18.73;4.65;;;1.50;99.90;;;1.16;93.48;101002.78;5226787;28;20049;-78
2022/01/10 05:24:56;;;;;;;13.75;4.43;;;1.50;99.90;;;1.17;93.49;101007.13;5226061;28;20057;-77
2022/01/10 05:27:28;;;;;;;10.48;3.88;;;1.50;99.90;;;1.20;93.67;101007.38;5226503;28;20045;-80
2022/01/10 05:30:00;;;;;;;14.07;3.67;;;1.60;99.90;;;1.24;94.30;101019.69;5226490;28;20056;-78
2022/01/10 05:32:32;;;;;;;11.75;5.18;;;1.60;99.90;;;1.24;93.76;101027.38;5225506;28;20049;-78
2022/01/10 05:35:06;;;;;;;14.63;4.50;;;1.60;99.90;;;1.25;94.32;101026.59;5226256;28;20049;-78
2022/01/10 05:37:38;;;;;;;11.50;4.88;;;1.60;99.90;;;1.28;93.92;101034.50;5226360;28;20067;-78
2022/01/10 05:40:12;;;;;;;14.70;5.38;;;1.60;99.90;;;1.32;94.53;101048.50;5227594;28;20056;-78
2022/01/10 05:42:44;;;;;;;14.60;5.03;;;1.70;99.90;;;1.36;94.13;101050.50;5230088;28;20060;-78
2022/01/10 05:45:16;;;;;;;14.93;4.75;;;1.70;99.90;;;1.40;94.66;101056.78;5230083;28;20414;-78
2022/01/10 05:47:48;;;;;;;10.48;4.25;;;1.70;99.90;;;1.47;95.06;101065.06;5229710;28;20052;-77
2022/01/10 05:50:32;;;;;;;9.85;4.18;;;1.80;99.90;;;1.54;95.09;101071.53;5230091;28;20052;-78
2022/01/10 05:53:05;;;;;;;13.45;4.28;;;1.80;99.90;;;1.59;94.39;101076.25;5230081;28;20438;-78
2022/01/10 05:55:39;;;;;;;17.92;4.45;;;1.90;99.90;;;1.64;95.27;101079.19;5334124;22;20163;-77
2022/01/10 05:58:11;;;;;;;11.02;4.45;;;1.90;99.90;;;1.69;94.50;101089.78;5227198;28;20037;-78
2022/01/10 06:00:43;;;;;;;12.32;4.68;;;2.00;99.90;;;1.72;94.84;101092.59;5229384;28;20056;-77
2022/01/10 06:03:16;;;;;;;9.80;4.13;;;2.00;99.90;;;1.76;95.10;101099.72;5229421;28;20049;-78
2022/01/10 06:05:47;;;;;;;10.13;4.60;;;2.00;99.90;;;1.77;95.21;101097.31;5228690;28;20053;-78
2022/01/10 06:08:19;;;;;;;13.57;4.40;;;2.10;99.90;;;1.83;95.64;101102.91;5230281;28;20056;-78
2022/01/10 06:10:53;;;;;;;14.73;4.45;;;2.10;99.90;;;1.88;95.82;101109.25;5228783;28;20055;-78
2022/01/10 06:13:25;;;;;;;6.53;3.38;;;2.20;99.90;;;1.93;95.20;101124.13;5229326;28;20074;-79
2022/01/10 06:15:57;;;;;;;8.02;3.80;;;2.20;99.90;;;1.95;95.74;101120.00;5229189;28;20316;-78
2022/01/10 06:18:28;;;;;;;8.55;3.70;;;2.30;99.90;;;2.01;95.38;101128.16;5229316;28;20041;-78
2022/01/10 06:21:00;;;;;;;11.80;3.97;;;2.30;99.90;;;2.01;95.69;101138.44;5228965;28;20055;-78
2022/01/10 06:23:32;;;;;;;10.10;4.05;;;2.30;99.90;;;2.04;95.81;101143.84;5227494;28;20053;-78
2022/01/10 06:26:06;;;;;;;12.32;4.05;;;2.30;99.90;;;2.06;96.07;101147.41;5228697;28;20052;-78
2022/01/10 06:28:38;;;;;;;9.25;3.50;;;2.40;99.90;;;2.10;95.68;101158.03;5229563;28;20132;-78
2022/01/10 06:31:10;;;;;;;13.30;4.22;;;2.40;99.90;;;2.16;95.82;101160.19;5228587;28;20511;-79
2022/01/10 06:33:42;;;;;;;10.73;3.30;;;2.40;99.90;;;2.18;96.19;101166.31;5229253;28;20048;-78
2022/01/10 06:36:15;;;;;;;15.25;4.07;;;2.50;99.90;;;2.23;96.14;101177.84;5228907;28;20135;-78
2022/01/10 06:38:47;;;;;;;13.73;5.40;;;2.50;99.90;;;2.27;96.02;101171.25;5228923;28;20041;-78
2022/01/10 06:41:20;;;;;;;14.25;5.13;;;2.50;99.90;;;2.28;96.03;101181.66;5229787;28;20554;-78
2022/01/10 06:43:52;;;;;;;14.45;5.13;;;2.50;99.90;;;2.30;96.02;101185.25;5229534;28;20052;-78
2022/01/10 06:46:24;;;;;;;10.25;4.45;;;2.60;99.90;;;2.33;95.93;101198.31;5230248;28;20068;-78
2022/01/10 06:48:56;;;;;;;9.43;4.38;;;2.60;99.90;;;2.37;95.90;101196.88;5229034;28;20119;-78
2022/01/10 06:51:28;;;;;;;12.30;4.90;;;2.60;99.90;;;2.37;96.14;101195.19;5227873;28;20072;-78
2022/01/10 06:53:59;;;;;;;12.88;4.88;;;2.60;99.90;;;2.40;96.01;101187.69;5228001;28;20415;-77
2022/01/10 06:56:33;;;;;;;10.75;4.57;;;2.70;99.90;;;2.42;96.01;101205.84;5228148;28;20053;-78
2022/01/10 06:59:05;;;;;;;14.52;5.00;;;2.70;99.90;;;2.40;96.19;101210.84;5228857;28;20056;-77
2022/01/10 07:01:37;;;;;;;13.23;5.60;;;2.70;99.90;;;2.44;96.46;101230.00;5230254;28;20136;-77
2022/01/10 07:04:10;;;;;;;9.88;4.85;;;2.70;99.90;;;2.47;96.40;101234.47;5229206;28;20503;-77
2022/01/10 07:06:42;;;;;;;12.60;4.47;;;2.70;99.90;;;2.48;96.35;101236.25;5228611;28;20049;-77
2022/01/10 07:09:14;;;;;;;12.10;5.28;;;2.70;99.90;;;2.48;96.23;101237.16;5228173;28;20485;-78
2022/01/10 07:11:47;;;;;;;14.65;5.30;;;2.70;99.90;;;2.49;96.58;101243.22;5228403;28;20049;-78
2022/01/10 07:14:19;;;;;;;14.00;5.43;;;2.80;99.90;;;2.50;96.22;101245.00;5228687;28;20053;-77
2022/01/10 07:16:51;;;;;;;12.75;4.63;;;2.80;99.90;;;2.51;96.73;101251.94;5229843;28;20045;-76
2022/01/10 07:19:24;;;;;;;13.82;5.07;;;2.80;99.90;;;2.51;96.63;101257.06;5230035;28;20045;-77
2022/01/10 07:21:56;;;;;;;13.45;6.30;;;2.80;99.90;;;2.45;96.83;101255.84;5230755;28;20049;-78
2022/01/10 07:24:28;;;;;;;13.60;5.18;;;2.80;99.90;;;2.45;97.51;101268.69;5231325;28;20084;-77
2022/01/10 07:27:02;;;;;;;14.50;5.40;;;2.80;99.90;;;2.47;97.43;101280.78;5229911;28;20052;-77
2022/01/10 07:29:34;;;;;;;13.27;4.65;;;2.80;99.90;;;2.48;97.27;101287.72;5229957;28;20202;-77
2022/01/10 07:32:06;;;;;;;15.23;4.82;;;2.80;99.90;;;2.50;97.29;101291.31;5229364;28;20076;-77
2022/01/10 07:34:38;;;;;;;13.63;5.18;;;2.80;99.90;;;2.53;97.24;101296.69;5229480;28;20399;-77
2022/01/10 07:37:10;;;;;;;16.00;5.65;;;2.80;99.90;;;2.55;97.25;101295.13;5229219;28;20056;-77
2022/01/10 07:39:43;;;;;;;12.23;5.15;;;2.90;99.90;;;2.59;97.37;101297.13;5228767;28;20088;-77
2022/01/10 07:42:16;;;;;;;15.45;4.55;;;2.90;99.90;;;2.63;97.43;101309.47;5229262;28;20121;-76
2022/01/10 07:44:48;;;;;;;11.05;4.70;;;2.90;99.90;;;2.66;97.34;101309.69;5228173;28;20501;-78
2022/01/10 07:47:20;;;;;;;18.20;5.88;;;2.90;99.90;;;2.67;97.49;101319.19;5228135;28;20060;-77
2022/01/10 07:49:52;;;;;;;11.43;5.85;;;3.00;99.90;;;2.71;97.18;101322.13;5227614;28;20052;-77
2022/01/10 07:52:26;;;;;;;18.38;5.43;;;3.00;99.90;;;2.74;97.22;101324.03;5228523;28;20079;-77
2022/01/10 07:54:58;;;;;;;16.20;5.65;;;3.00;99.90;;;2.77;97.27;101334.56;5227290;28;20111;-78
2022/01/10 07:57:32;;;;;;;12.43;5.30;;;3.00;99.90;;;2.79;97.29;101332.97;5227151;28;20053;-78
2022/01/10 08:00:06;;;;;;;13.35;4.82;;;3.00;99.90;;;2.79;97.19;101338.13;5228487;28;20132;-77
2022/01/10 08:02:38;;;;;;;15.93;5.38;;;3.10;99.90;;;2.83;97.17;101337.59;5228739;28;20056;-77
2022/01/10 08:05:11;;;;;;;10.57;4.57;;;3.10;99.90;;;2.88;97.09;101348.22;5228598;28;20079;-77
2022/01/10 08:07:43;;;;;;;16.02;5.35;;;3.10;99.90;;;2.90;96.76;101350.13;5228286;28;20510;-77
2022/01/10 08:10:15;;;;;;;11.93;5.50;;;3.20;99.90;;;2.93;96.86;101359.75;5227940;28;20510;-77
2022/01/10 08:12:48;;;;;;;11.88;5.05;;;3.20;99.90;;;2.97;96.73;101365.25;5228130;28;20041;-78
2022/01/10 08:15:20;;;;;;;15.02;5.28;;;3.20;99.90;;;3.03;96.37;101369.06;5225148;28;20041;-77
2022/01/10 08:17:53;;;;;;;13.30;5.07;;;3.20;99.90;;;3.06;96.43;101382.16;5227291;28;20053;-75
2022/01/10 08:20:25;;;;;;;18.65;6.28;;;3.30;99.90;;;3.04;96.58;101376.91;5228106;28;20052;-77
2022/01/10 08:22:57;;;;;;;14.77;6.88;;;3.30;99.90;;;3.03;96.58;101374.22;5228711;28;20049;-78
2022/01/10 08:25:29;;;;;;;15.30;6.43;;;3.30;99.90;;;3.10;97.06;101381.63;5228749;28;20659;-76
2022/01/10 08:28:03;;;;;;;16.23;5.97;;;3.40;99.90;;;3.18;96.93;101390.78;5227626;28;20710;-76
2022/01/10 08:30:35;;;;;;;15.20;6.80;;;3.40;99.90;;;3.23;97.13;101397.19;5228153;28;20079;-77
2022/01/10 08:33:07;;;;;;;16.38;6.45;;;3.50;99.90;;;3.28;96.95;101403.59;5227808;28;20091;-78
2022/01/10 08:35:39;;;;;;;13.18;5.88;;;3.50;99.90;;;3.34;96.82;101393.72;5227241;28;20053;-78
2022/01/10 08:38:11;;;;;;;14.75;5.47;;;3.60;99.90;;;3.39;96.71;101409.50;5227580;28;20067;-77
2022/01/10 08:40:43;;;;;;;19.67;6.22;;;3.60;99.90;;;3.42;96.53;101410.63;5227146;28;20060;-78
2022/01/10 08:43:17;;;;;;;12.98;4.78;;;3.70;99.90;;;3.45;96.41;101416.00;5226747;28;20080;-77
2022/01/10 08:45:49;;;;;;;10.88;6.18;;;3.70;99.90;;;3.45;96.26;101418.56;5226578;28;20425;-78
2022/01/10 08:48:21;;;;;;;12.43;4.63;;;3.70;99.90;;;3.44;95.68;101413.31;5226840;28;20056;-78
2022/01/10 08:50:53;;;;;;;12.15;4.75;;;3.70;99.90;;;3.45;95.78;101418.56;5227880;28;20053;-78
2022/01/10 08:53:26;;;;;;;13.32;5.45;;;3.70;99.90;;;3.44;95.43;101427.09;5228938;28;20061;-77
2022/01/10 08:55:58;;;;;;;16.40;5.72;;;3.70;99.90;;;3.44;95.11;101432.25;5229082;28;20081;-77
2022/01/10 08:58:32;;;;;;;16.98;6.53;;;3.70;99.90;;;3.44;94.78;101437.41;5228995;28;20148;-78
2022/01/10 09:01:07;;;;;;;17.63;6.25;;;3.70;99.90;;;3.42;94.86;101433.84;5230759;28;20049;-77
2022/01/10 09:03:39;;;;;;;14.63;5.25;;;3.70;99.90;;;3.47;94.61;101441.91;5230591;28;20053;-77
2022/01/10 09:06:11;;;;;;;11.20;4.50;;;3.70;99.90;;;3.51;94.83;101444.81;5229643;28;20517;-76
2022/01/10 09:08:47;;;;;;;11.90;4.93;;;3.70;99.90;;;3.54;94.66;101450.22;5228085;28;20056;-77
2022/01/10 09:11:19;;;;;;;17.08;5.13;;;3.70;99.90;;;3.54;94.49;101442.47;5229422;28;20059;-77
2022/01/10 09:13:53;;;;;;;15.55;5.35;;;3.70;99.90;;;3.54;94.34;101450.22;5229643;28;20053;-76
2022/01/10 09:16:25;;;;;;;11.68;5.15;;;3.70;99.90;;;3.54;94.29;101455.38;5231959;28;20053;-77
2022/01/10 09:18:57;;;;;;;11.90;5.03;;;3.70;99.90;;;3.56;94.36;101457.16;5232490;28;20048;-77
2022/01/10 09:21:29;;;;;;;12.27;4.82;;;3.70;99.90;;;3.54;94.26;101460.53;5233085;28;20055;-77
2022/01/10 09:24:01;;;;;;;18.95;5.90;;;3.70;99.90;;;3.56;94.56;101458.03;5232651;28;20414;-76
2022/01/10 09:26:34;;;;;;;16.13;6.70;;;3.70;99.90;;;3.64;94.39;101466.34;5232363;28;20049;-80
2022/01/10 09:29:07;;;;;;;17.40;5.78;;;3.80;99.90;;;3.73;94.64;101467.03;5232951;28;20091;-79
2022/01/10 09:31:39;;;;;;;14.70;5.45;;;3.80;99.90;;;3.83;94.60;101469.47;5231029;28;20045;-80
2022/01/10 09:34:11;;;;;;;12.77;5.20;;;4.00;99.90;;;3.97;94.81;101470.44;5231157;28;20045;-80
2022/01/10 09:36:43;;;;;;;14.48;5.22;;;4.10;99.90;;;4.11;94.67;101481.75;5231796;28;20055;-80
2022/01/10 09:39:15;;;;;;;12.68;4.63;;;4.20;99.90;;;4.22;94.69;101484.31;5232931;28;20056;-81
2022/01/10 09:41:48;;;;;;;13.27;4.72;;;4.30;99.90;;;4.35;94.01;101496.41;5233241;28;20247;-80
2022/01/10 09:44:22;;;;;;;14.20;4.85;;;4.40;99.90;;;4.67;96.09;101497.78;5234016;28;20070;-80
2022/01/10 09:46:56;;;;;;;18.00;5.55;;;4.70;99.90;;;4.74;94.74;101493.13;5233765;28;20055;-80
2022/01/10 09:49:28;;;;;;;11.02;4.72;;;4.80;99.90;;;4.83;94.03;101510.97;5233201;28;20045;-80
2022/01/10 09:52:00;;;;;;;16.15;5.47;;;4.90;99.90;;;4.89;92.80;101511.41;5232838;28;20060;-80
2022/01/10 09:54:32;;;;;;;11.85;5.07;;;4.90;99.90;;;4.96;92.86;101508.44;5233732;28;20056;-81
2022/01/10 09:57:05;;;;;;;14.20;5.97;;;5.00;99.90;;;5.68;100.00;101506.41;5232957;28;20059;-77
2022/01/10 09:59:40;;;;;;;14.88;5.57;;;5.50;99.90;;;5.96;99.75;101508.22;5237631;28;20049;-78
2022/01/10 10:02:12;;;;;;;15.27;5.47;;;5.90;99.90;;;5.79;95.95;101496.75;5238121;28;20083;-79
2022/01/10 10:04:52;;;;;;;11.00;5.65;;;6.00;99.90;;;5.80;93.70;101511.47;5231750;28;20053;-79
2022/01/10 10:07:24;;;;;;;18.33;6.38;;;5.90;99.90;;;5.76;92.11;101516.34;5230984;28;20130;-79
2022/01/10 10:09:58;;;;;;;15.98;6.38;;;5.90;99.90;;;5.75;91.78;101531.00;5230488;28;20496;-78
2022/01/10 10:12:30;;;;;;;14.75;6.85;;;5.90;99.90;;;5.76;91.10;101534.47;5233694;28;20523;-78
2022/01/10 10:15:06;;;;;;;18.95;7.05;;;5.80;99.90;;;5.77;90.75;101536.25;5231799;28;20052;-76
2022/01/10 10:17:40;;;;;;;23.50;7.32;;;5.80;99.90;;;5.82;90.34;101547.81;5233060;28;20045;-77
2022/01/10 10:20:16;;;;;;;24.10;6.90;;;5.80;99.90;;;5.89;90.23;101553.47;5234044;28;20048;-78
2022/01/10 10:22:54;;;;;;;13.52;5.80;;;5.80;99.90;;;5.98;89.64;101559.28;5234345;28;20045;-77
2022/01/10 10:25:26;;;;;;;18.38;6.00;;;5.90;99.90;;;6.09;88.71;101560.00;5233445;28;20057;-78
2022/01/10 10:27:58;;;;;;;22.25;5.45;;;6.00;99.90;;;6.13;88.88;101577.53;5234635;28;20049;-77
2022/01/10 10:30:35;;;;;;;19.23;6.75;;;6.00;99.90;;;6.20;88.44;101581.41;5234069;28;20045;-77
2022/01/10 10:33:15;;;;;;;18.38;5.97;;;6.10;99.90;;;6.24;87.46;101580.78;5234645;28;20053;-77
2022/01/10 10:35:57;;;;;;;15.13;6.00;;;6.10;99.90;;;6.32;87.36;101573.50;5232635;28;20056;-77
2022/01/10 10:38:29;;;;;;;17.00;6.65;;;6.20;99.90;;;6.42;86.90;101579.38;5233130;28;20049;-77
2022/01/10 10:41:04;;;;;;;15.70;5.90;;;6.30;99.90;;;6.54;86.57;101592.22;5233208;28;20055;-78
2022/01/10 10:43:39;;;;;;;17.02;6.50;;;6.30;99.90;;;6.58;86.00;101594.19;5231978;28;20052;-77
2022/01/10 10:46:17;;;;;;;21.42;6.78;;;6.40;99.90;;;6.66;85.07;101590.41;5231478;28;20056;-77
2022/01/10 10:48:52;;;;;;;19.42;7.22;;;6.50;99.90;;;6.69;83.99;101594.88;5231373;28;20041;-78
2022/01/10 10:51:27;;;;;;;;;;;6.50;99.90;;;6.75;83.90;101590.09;5233661;28;20052;-77